sensor_id;sensor_type;location;lat;lon;timestamp;temperature;humidity
37984;DHT22;64625;50.882;4.376;2022-12-10T00:00:43;1.90;99.90
37984;DHT22;64625;50.882;4.376;2022-12-10T00:03:09;1.90;99.90
37984;DHT22;64625;50.882;4.376;2022-12-10T00:05:36;1.90;99.90
37984;DHT22;64625;50.882;4.376;2022-12-10T00:08:02;1.90;99.90
37984;DHT22;64625;50.882;4.376;2022-12-10T00:10:28;1.80;99.90
37984;DHT22;64625;50.882;4.376;2022-12-10T00:12:54;1.80;99.90
37984;DHT22;64625;50.882;4.376;2022-12-10T00:15:19;1.80;99.90
37984;DHT22;64625;50.882;4.376;2022-12-10T00:17:45;1.80;99.90
37984;DHT22;64625;50.882;4.376;2022-12-10T00:20:11;1.80;99.90
37984;DHT22;64625;50.882;4.376;2022-12-10T00:22:37;1.80;99.90
37984;DHT22;64625;50.882;4.376;2022-12-10T00:25:03;1.80;99.90
37984;DHT22;64625;50.882;4.376;2022-12-10T00:27:30;1.80;99.90
37984;DHT22;64625;50.882;4.376;2022-12-10T00:29:56;1.80;99.90
37984;DHT22;64625;50.882;4.376;2022-12-10T00:32:22;1.80;99.90
37984;DHT22;64625;50.882;4.376;2022-12-10T00:34:47;1.80;99.90
37984;DHT22;64625;50.882;4.376;2022-12-10T00:37:13;1.80;99.90
37984;DHT22;64625;50.882;4.376;2022-12-10T00:39:39;1.80;99.90
37984;DHT22;64625;50.882;4.376;2022-12-10T00:42:05;1.80;99.90
37984;DHT22;64625;50.882;4.376;2022-12-10T00:44:30;1.80;99.90
37984;DHT22;64625;50.882;4.376;2022-12-10T00:46:56;1.80;99.90
37984;DHT22;64625;50.882;4.376;2022-12-10T00:49:22;1.80;99.90
37984;DHT22;64625;50.882;4.376;2022-12-10T00:51:50;1.70;99.90
37984;DHT22;64625;50.882;4.376;2022-12-10T00:54:15;1.70;99.90
37984;DHT22;64625;50.882;4.376;2022-12-10T00:56:41;1.70;99.90
37984;DHT22;64625;50.882;4.376;2022-12-10T00:59:09;1.70;99.90
37984;DHT22;64625;50.882;4.376;2022-12-10T01:01:37;1.70;99.90
37984;DHT22;64625;50.882;4.376;2022-12-10T01:04:10;1.70;99.90
37984;DHT22;64625;50.882;4.376;2022-12-10T01:07:02;1.60;99.90
37984;DHT22;64625;50.882;4.376;2022-12-10T01:09:29;1.60;99.90
37984;DHT22;64625;50.882;4.376;2022-12-10T01:12:00;1.60;99.90
37984;DHT22;64625;50.882;4.376;2022-12-10T01:14:28;1.60;99.90
37984;DHT22;64625;50.882;4.376;2022-12-10T01:16:57;1.60;99.90
37984;DHT22;64625;50.882;4.376;2022-12-10T01:19:23;1.60;99.90
37984;DHT22;64625;50.882;4.376;2022-12-10T01:21:51;1.60;99.90
37984;DHT22;64625;50.882;4.376;2022-12-10T01:24:21;1.60;99.90
37984;DHT22;64625;50.882;4.376;2022-12-10T01:26:47;1.70;99.90
37984;DHT22;64625;50.882;4.376;2022-12-10T01:29:13;1.70;99.90
37984;DHT22;64625;50.882;4.376;2022-12-10T01:31:39;1.70;99.90
37984;DHT22;64625;50.882;4.376;2022-12-10T01:34:07;1.70;99.90
37984;DHT22;64625;50.882;4.376;2022-12-10T01:36:36;1.60;99.90
37984;DHT22;64625;50.882;4.376;2022-12-10T01:39:04;1.60;99.90
37984;DHT22;64625;50.882;4.376;2022-12-10T01:41:42;1.60;99.90
37984;DHT22;64625;50.882;4.376;2022-12-10T01:46:40;1.60;99.90
37984;DHT22;64625;50.882;4.376;2022-12-10T01:49:09;1.60;99.90
37984;DHT22;64625;50.882;4.376;2022-12-10T01:51:38;1.60;99.90
37984;DHT22;64625;50.882;4.376;2022-12-10T01:54:09;1.60;99.90
37984;DHT22;64625;50.882;4.376;2022-12-10T01:56:42;1.60;99.90
37984;DHT22;64625;50.882;4.376;2022-12-10T01:59:09;1.60;99.90
37984;DHT22;64625;50.882;4.376;2022-12-10T02:04:32;1.50;99.90
37984;DHT22;64625;50.882;4.376;2022-12-10T02:07:09;1.50;99.90
37984;DHT22;64625;50.882;4.376;2022-12-10T02:13:01;1.60;99.90
37984;DHT22;64625;50.882;4.376;2022-12-10T02:15:34;1.60;99.90
37984;DHT22;64625;50.882;4.376;2022-12-10T02:18:28;1.60;99.90
37984;DHT22;64625;50.882;4.376;2022-12-10T02:21:03;1.60;99.90
37984;DHT22;64625;50.882;4.376;2022-12-10T02:23:40;1.60;99.90
37984;DHT22;64625;50.882;4.376;2022-12-10T02:26:21;1.60;99.90
37984;DHT22;64625;50.882;4.376;2022-12-10T02:34:48;1.60;99.90
37984;DHT22;64625;50.882;4.376;2022-12-10T02:37:20;1.60;99.90
37984;DHT22;64625;50.882;4.376;2022-12-10T02:39:50;1.60;99.90
37984;DHT22;64625;50.882;4.376;2022-12-10T02:42:19;1.60;99.90
37984;DHT22;64625;50.882;4.376;2022-12-10T02:44:47;1.60;99.90
37984;DHT22;64625;50.882;4.376;2022-12-10T02:47:16;1.60;99.90
37984;DHT22;64625;50.882;4.376;2022-12-10T02:49:44;1.50;99.90
37984;DHT22;64625;50.882;4.376;2022-12-10T02:52:14;1.50;99.90
37984;DHT22;64625;50.882;4.376;2022-12-10T02:54:48;1.50;99.90
37984;DHT22;64625;50.882;4.376;2022-12-10T02:57:22;1.50;99.90
37984;DHT22;64625;50.882;4.376;2022-12-10T03:00:14;1.50;99.90
37984;DHT22;64625;50.882;4.376;2022-12-10T03:03:11;1.50;99.90
37984;DHT22;64625;50.882;4.376;2022-12-10T03:08:38;1.50;99.90
37984;DHT22;64625;50.882;4.376;2022-12-10T03:11:11;1.50;99.90
37984;DHT22;64625;50.882;4.376;2022-12-10T03:14:03;1.50;99.90
37984;DHT22;64625;50.882;4.376;2022-12-10T03:16:39;1.40;99.90
37984;DHT22;64625;50.882;4.376;2022-12-10T03:19:12;1.40;99.90
37984;DHT22;64625;50.882;4.376;2022-12-10T03:21:41;1.40;99.90
37984;DHT22;64625;50.882;4.376;2022-12-10T03:24:10;1.40;99.90
37984;DHT22;64625;50.882;4.376;2022-12-10T03:26:40;1.40;99.90
37984;DHT22;64625;50.882;4.376;2022-12-10T03:29:15;1.40;99.90
37984;DHT22;64625;50.882;4.376;2022-12-10T03:31:44;1.40;99.90
37984;DHT22;64625;50.882;4.376;2022-12-10T03:34:10;1.40;99.90
37984;DHT22;64625;50.882;4.376;2022-12-10T03:36:38;1.40;99.90
37984;DHT22;64625;50.882;4.376;2022-12-10T03:39:05;1.40;99.90
37984;DHT22;64625;50.882;4.376;2022-12-10T03:41:31;1.40;99.90
37984;DHT22;64625;50.882;4.376;2022-12-10T03:43:58;1.40;99.90
37984;DHT22;64625;50.882;4.376;2022-12-10T03:46:29;1.40;99.90
37984;DHT22;64625;50.882;4.376;2022-12-10T03:48:57;1.40;99.90
37984;DHT22;64625;50.882;4.376;2022-12-10T03:51:23;1.40;99.90
37984;DHT22;64625;50.882;4.376;2022-12-10T03:53:49;1.50;99.90
37984;DHT22;64625;50.882;4.376;2022-12-10T03:56:16;1.50;99.90
37984;DHT22;64625;50.882;4.376;2022-12-10T03:58:42;1.40;99.90
37984;DHT22;64625;50.882;4.376;2022-12-10T04:01:08;1.40;99.90
37984;DHT22;64625;50.882;4.376;2022-12-10T04:03:39;1.40;99.90
37984;DHT22;64625;50.882;4.376;2022-12-10T04:06:06;1.40;99.90
37984;DHT22;64625;50.882;4.376;2022-12-10T04:08:33;1.40;99.90
37984;DHT22;64625;50.882;4.376;2022-12-10T04:11:03;1.40;99.90
37984;DHT22;64625;50.882;4.376;2022-12-10T04:13:32;1.30;99.90
37984;DHT22;64625;50.882;4.376;2022-12-10T04:16:16;1.30;99.90
37984;DHT22;64625;50.882;4.376;2022-12-10T04:19:04;1.30;99.90
37984;DHT22;64625;50.882;4.376;2022-12-10T04:21:32;1.30;99.90
37984;DHT22;64625;50.882;4.376;2022-12-10T04:24:19;1.30;99.90
37984;DHT22;64625;50.882;4.376;2022-12-10T04:27:08;1.30;99.90
37984;DHT22;64625;50.882;4.376;2022-12-10T04:29:35;1.40;99.90
37984;DHT22;64625;50.882;4.376;2022-12-10T04:32:01;1.30;99.90
37984;DHT22;64625;50.882;4.376;2022-12-10T04:34:26;1.30;99.90
37984;DHT22;64625;50.882;4.376;2022-12-10T04:36:52;1.30;99.90
37984;DHT22;64625;50.882;4.376;2022-12-10T04:39:18;1.20;99.90
37984;DHT22;64625;50.882;4.376;2022-12-10T04:41:46;1.20;99.90
37984;DHT22;64625;50.882;4.376;2022-12-10T04:44:12;1.20;99.90
37984;DHT22;64625;50.882;4.376;2022-12-10T04:46:38;1.20;99.90
37984;DHT22;64625;50.882;4.376;2022-12-10T04:49:05;1.20;99.90
37984;DHT22;64625;50.882;4.376;2022-12-10T04:51:31;1.20;99.90
37984;DHT22;64625;50.882;4.376;2022-12-10T04:53:57;1.20;99.90
37984;DHT22;64625;50.882;4.376;2022-12-10T04:56:27;1.20;99.90
37984;DHT22;64625;50.882;4.376;2022-12-10T04:58:55;1.20;99.90
37984;DHT22;64625;50.882;4.376;2022-12-10T05:01:24;1.20;99.90
37984;DHT22;64625;50.882;4.376;2022-12-10T05:03:50;1.20;99.90
37984;DHT22;64625;50.882;4.376;2022-12-10T05:06:17;1.20;99.90
37984;DHT22;64625;50.882;4.376;2022-12-10T05:08:44;1.20;99.90
37984;DHT22;64625;50.882;4.376;2022-12-10T05:11:15;1.20;99.90
37984;DHT22;64625;50.882;4.376;2022-12-10T05:13:42;1.20;99.90
37984;DHT22;64625;50.882;4.376;2022-12-10T05:16:10;1.20;99.90
37984;DHT22;64625;50.882;4.376;2022-12-10T05:18:36;1.20;99.90
37984;DHT22;64625;50.882;4.376;2022-12-10T05:21:04;1.20;99.90
37984;DHT22;64625;50.882;4.376;2022-12-10T05:23:32;1.20;99.90
37984;DHT22;64625;50.882;4.376;2022-12-10T05:26:05;1.20;99.90
37984;DHT22;64625;50.882;4.376;2022-12-10T05:28:35;1.20;99.90
37984;DHT22;64625;50.882;4.376;2022-12-10T05:31:01;1.20;99.90
37984;DHT22;64625;50.882;4.376;2022-12-10T05:33:27;1.20;99.90
37984;DHT22;64625;50.882;4.376;2022-12-10T05:35:58;1.20;99.90
37984;DHT22;64625;50.882;4.376;2022-12-10T05:38:24;1.10;99.90
37984;DHT22;64625;50.882;4.376;2022-12-10T05:40:51;1.10;99.90
37984;DHT22;64625;50.882;4.376;2022-12-10T05:43:17;1.10;99.90
37984;DHT22;64625;50.882;4.376;2022-12-10T05:45:43;1.10;99.90
37984;DHT22;64625;50.882;4.376;2022-12-10T05:48:10;1.10;99.90
37984;DHT22;64625;50.882;4.376;2022-12-10T05:50:37;1.10;99.90
37984;DHT22;64625;50.882;4.376;2022-12-10T05:53:03;1.10;99.90
37984;DHT22;64625;50.882;4.376;2022-12-10T05:55:29;1.10;99.90
37984;DHT22;64625;50.882;4.376;2022-12-10T05:57:57;1.10;99.90
37984;DHT22;64625;50.882;4.376;2022-12-10T06:00:23;1.10;99.90
37984;DHT22;64625;50.882;4.376;2022-12-10T06:02:52;1.00;99.90
37984;DHT22;64625;50.882;4.376;2022-12-10T06:05:18;1.00;99.90
37984;DHT22;64625;50.882;4.376;2022-12-10T06:07:44;1.00;99.90
37984;DHT22;64625;50.882;4.376;2022-12-10T06:10:10;1.00;99.90
37984;DHT22;64625;50.882;4.376;2022-12-10T06:12:37;1.10;99.90
37984;DHT22;64625;50.882;4.376;2022-12-10T06:15:04;1.10;99.90
37984;DHT22;64625;50.882;4.376;2022-12-10T06:17:31;1.10;99.90
37984;DHT22;64625;50.882;4.376;2022-12-10T06:19:57;1.10;99.90
37984;DHT22;64625;50.882;4.376;2022-12-10T06:22:23;1.10;99.90
37984;DHT22;64625;50.882;4.376;2022-12-10T06:24:49;1.10;99.90
37984;DHT22;64625;50.882;4.376;2022-12-10T06:27:15;1.10;99.90
37984;DHT22;64625;50.882;4.376;2022-12-10T06:29:41;1.10;99.90
37984;DHT22;64625;50.882;4.376;2022-12-10T06:32:07;1.10;99.90
37984;DHT22;64625;50.882;4.376;2022-12-10T06:34:33;1.10;99.90
37984;DHT22;64625;50.882;4.376;2022-12-10T06:36:58;1.10;99.90
37984;DHT22;64625;50.882;4.376;2022-12-10T06:39:24;1.00;99.90
37984;DHT22;64625;50.882;4.376;2022-12-10T06:41:50;1.00;99.90
37984;DHT22;64625;50.882;4.376;2022-12-10T06:44:17;1.00;99.90
37984;DHT22;64625;50.882;4.376;2022-12-10T06:46:43;0.90;99.90
37984;DHT22;64625;50.882;4.376;2022-12-10T06:49:08;0.90;99.90
37984;DHT22;64625;50.882;4.376;2022-12-10T06:51:34;0.90;99.90
37984;DHT22;64625;50.882;4.376;2022-12-10T06:54:00;0.90;99.90
37984;DHT22;64625;50.882;4.376;2022-12-10T06:56:26;0.90;99.90
37984;DHT22;64625;50.882;4.376;2022-12-10T06:58:52;0.90;99.90
37984;DHT22;64625;50.882;4.376;2022-12-10T07:01:21;0.90;99.90
37984;DHT22;64625;50.882;4.376;2022-12-10T07:03:50;0.90;99.90
37984;DHT22;64625;50.882;4.376;2022-12-10T07:06:16;0.90;99.90
37984;DHT22;64625;50.882;4.376;2022-12-10T07:08:42;0.90;99.90
37984;DHT22;64625;50.882;4.376;2022-12-10T07:11:11;0.90;99.90
37984;DHT22;64625;50.882;4.376;2022-12-10T07:13:37;0.90;99.90
37984;DHT22;64625;50.882;4.376;2022-12-10T07:16:16;0.90;99.90
37984;DHT22;64625;50.882;4.376;2022-12-10T07:18:42;0.90;99.90
37984;DHT22;64625;50.882;4.376;2022-12-10T07:21:33;0.90;99.90
37984;DHT22;64625;50.882;4.376;2022-12-10T07:24:14;0.90;99.90
37984;DHT22;64625;50.882;4.376;2022-12-10T07:26:43;0.90;99.90
37984;DHT22;64625;50.882;4.376;2022-12-10T07:29:13;0.90;99.90
37984;DHT22;64625;50.882;4.376;2022-12-10T07:31:49;0.90;99.90
37984;DHT22;64625;50.882;4.376;2022-12-10T07:34:17;0.90;99.90
37984;DHT22;64625;50.882;4.376;2022-12-10T07:36:46;0.90;99.90
37984;DHT22;64625;50.882;4.376;2022-12-10T07:39:14;0.90;99.90
37984;DHT22;64625;50.882;4.376;2022-12-10T07:41:44;0.90;99.90
37984;DHT22;64625;50.882;4.376;2022-12-10T07:44:12;0.90;99.90
37984;DHT22;64625;50.882;4.376;2022-12-10T07:46:41;1.00;99.90
37984;DHT22;64625;50.882;4.376;2022-12-10T07:49:06;0.90;99.90
37984;DHT22;64625;50.882;4.376;2022-12-10T07:51:33;0.90;99.90
37984;DHT22;64625;50.882;4.376;2022-12-10T07:53:59;1.00;99.90
37984;DHT22;64625;50.882;4.376;2022-12-10T07:56:25;1.00;99.90
37984;DHT22;64625;50.882;4.376;2022-12-10T07:58:52;1.00;99.90
37984;DHT22;64625;50.882;4.376;2022-12-10T08:01:26;1.00;99.90
37984;DHT22;64625;50.882;4.376;2022-12-10T08:03:53;1.00;99.90
37984;DHT22;64625;50.882;4.376;2022-12-10T08:06:22;1.00;99.90
37984;DHT22;64625;50.882;4.376;2022-12-10T08:08:49;1.00;99.90
37984;DHT22;64625;50.882;4.376;2022-12-10T08:11:17;1.00;99.90
37984;DHT22;64625;50.882;4.376;2022-12-10T08:13:43;1.00;99.90
37984;DHT22;64625;50.882;4.376;2022-12-10T08:16:18;1.00;99.90
37984;DHT22;64625;50.882;4.376;2022-12-10T08:18:46;1.00;99.90
37984;DHT22;64625;50.882;4.376;2022-12-10T08:21:18;1.00;99.90
37984;DHT22;64625;50.882;4.376;2022-12-10T08:23:45;1.00;99.90
37984;DHT22;64625;50.882;4.376;2022-12-10T08:26:25;1.10;99.90
37984;DHT22;64625;50.882;4.376;2022-12-10T08:28:52;1.10;99.90
37984;DHT22;64625;50.882;4.376;2022-12-10T08:31:20;1.10;99.90
37984;DHT22;64625;50.882;4.376;2022-12-10T08:33:46;1.10;99.90
37984;DHT22;64625;50.882;4.376;2022-12-10T08:36:14;1.10;99.90
37984;DHT22;64625;50.882;4.376;2022-12-10T08:38:42;1.10;99.90
37984;DHT22;64625;50.882;4.376;2022-12-10T08:41:10;1.10;99.90
37984;DHT22;64625;50.882;4.376;2022-12-10T08:43:37;1.00;99.90
37984;DHT22;64625;50.882;4.376;2022-12-10T08:46:03;1.00;99.90
37984;DHT22;64625;50.882;4.376;2022-12-10T08:48:30;1.00;99.90
37984;DHT22;64625;50.882;4.376;2022-12-10T08:50:57;1.00;99.90
37984;DHT22;64625;50.882;4.376;2022-12-10T08:53:23;1.00;99.90
37984;DHT22;64625;50.882;4.376;2022-12-10T08:55:53;1.00;99.90
37984;DHT22;64625;50.882;4.376;2022-12-10T08:58:20;1.10;99.90
37984;DHT22;64625;50.882;4.376;2022-12-10T09:00:47;1.10;99.90
37984;DHT22;64625;50.882;4.376;2022-12-10T09:03:13;1.10;99.90
37984;DHT22;64625;50.882;4.376;2022-12-10T09:05:39;1.10;99.90
37984;DHT22;64625;50.882;4.376;2022-12-10T09:08:05;1.10;99.90
37984;DHT22;64625;50.882;4.376;2022-12-10T09:10:31;1.10;99.90
37984;DHT22;64625;50.882;4.376;2022-12-10T09:12:57;1.10;99.90
37984;DHT22;64625;50.882;4.376;2022-12-10T09:15:23;1.10;99.90
37984;DHT22;64625;50.882;4.376;2022-12-10T09:17:49;1.10;99.90
37984;DHT22;64625;50.882;4.376;2022-12-10T09:20:15;1.10;99.90
37984;DHT22;64625;50.882;4.376;2022-12-10T09:22:41;1.10;99.90
37984;DHT22;64625;50.882;4.376;2022-12-10T09:25:09;1.10;99.90
37984;DHT22;64625;50.882;4.376;2022-12-10T09:27:41;1.10;99.90
37984;DHT22;64625;50.882;4.376;2022-12-10T09:30:08;1.10;99.90
37984;DHT22;64625;50.882;4.376;2022-12-10T09:32:34;1.10;99.90
37984;DHT22;64625;50.882;4.376;2022-12-10T09:35:00;1.10;99.90
37984;DHT22;64625;50.882;4.376;2022-12-10T09:37:26;1.20;99.90
37984;DHT22;64625;50.882;4.376;2022-12-10T09:39:51;1.10;99.90
37984;DHT22;64625;50.882;4.376;2022-12-10T09:48:20;1.20;99.90
37984;DHT22;64625;50.882;4.376;2022-12-10T09:50:55;1.30;99.90
37984;DHT22;64625;50.882;4.376;2022-12-10T09:53:24;1.20;99.90
37984;DHT22;64625;50.882;4.376;2022-12-10T09:55:52;1.30;99.90
37984;DHT22;64625;50.882;4.376;2022-12-10T09:58:23;1.20;99.90
37984;DHT22;64625;50.882;4.376;2022-12-10T10:01:00;1.20;99.90
37984;DHT22;64625;50.882;4.376;2022-12-10T10:03:36;1.30;99.90
37984;DHT22;64625;50.882;4.376;2022-12-10T10:06:03;1.20;99.90
37984;DHT22;64625;50.882;4.376;2022-12-10T10:08:53;1.20;99.90
37984;DHT22;64625;50.882;4.376;2022-12-10T10:11:24;1.20;99.90
37984;DHT22;64625;50.882;4.376;2022-12-10T10:13:59;1.20;99.90
37984;DHT22;64625;50.882;4.376;2022-12-10T10:16:47;1.30;99.90
37984;DHT22;64625;50.882;4.376;2022-12-10T10:19:31;1.30;99.90
37984;DHT22;64625;50.882;4.376;2022-12-10T10:22:00;1.30;99.90
37984;DHT22;64625;50.882;4.376;2022-12-10T10:24:35;1.30;99.90
37984;DHT22;64625;50.882;4.376;2022-12-10T10:29:43;1.40;99.90
37984;DHT22;64625;50.882;4.376;2022-12-10T10:34:40;1.40;99.90
37984;DHT22;64625;50.882;4.376;2022-12-10T10:37:11;1.50;99.90
37984;DHT22;64625;50.882;4.376;2022-12-10T10:39:38;1.50;99.90
37984;DHT22;64625;50.882;4.376;2022-12-10T10:42:09;1.50;99.90
37984;DHT22;64625;50.882;4.376;2022-12-10T10:44:37;1.50;99.90
37984;DHT22;64625;50.882;4.376;2022-12-10T10:47:25;1.50;99.90
37984;DHT22;64625;50.882;4.376;2022-12-10T10:49:52;1.60;99.90
37984;DHT22;64625;50.882;4.376;2022-12-10T10:52:18;1.60;99.90
37984;DHT22;64625;50.882;4.376;2022-12-10T10:54:46;1.60;99.90
37984;DHT22;64625;50.882;4.376;2022-12-10T11:02:42;1.60;99.90
37984;DHT22;64625;50.882;4.376;2022-12-10T11:05:25;1.60;99.90
37984;DHT22;64625;50.882;4.376;2022-12-10T11:08:13;1.70;99.90
37984;DHT22;64625;50.882;4.376;2022-12-10T11:10:49;1.70;99.90
37984;DHT22;64625;50.882;4.376;2022-12-10T11:13:34;1.70;99.90
37984;DHT22;64625;50.882;4.376;2022-12-10T11:18:58;1.70;99.90
37984;DHT22;64625;50.882;4.376;2022-12-10T11:21:29;1.70;99.90
37984;DHT22;64625;50.882;4.376;2022-12-10T11:23:56;1.70;99.90
37984;DHT22;64625;50.882;4.376;2022-12-10T11:41:43;1.80;99.90
37984;DHT22;64625;50.882;4.376;2022-12-10T11:49:54;1.80;99.90
37984;DHT22;64625;50.882;4.376;2022-12-10T11:58:01;2.00;99.90
37984;DHT22;64625;50.882;4.376;2022-12-10T12:01:06;2.00;99.90
37984;DHT22;64625;50.882;4.376;2022-12-10T12:06:28;2.00;99.90
37984;DHT22;64625;50.882;4.376;2022-12-10T12:15:00;2.20;99.90
37984;DHT22;64625;50.882;4.376;2022-12-10T12:17:32;2.20;99.90
37984;DHT22;64625;50.882;4.376;2022-12-10T12:20:08;2.20;99.90
37984;DHT22;64625;50.882;4.376;2022-12-10T12:22:45;2.20;99.90
37984;DHT22;64625;50.882;4.376;2022-12-10T12:25:31;2.30;99.90
37984;DHT22;64625;50.882;4.376;2022-12-10T12:28:26;2.30;99.90
37984;DHT22;64625;50.882;4.376;2022-12-10T12:31:04;2.30;99.90
37984;DHT22;64625;50.882;4.376;2022-12-10T12:33:42;2.30;99.90
37984;DHT22;64625;50.882;4.376;2022-12-10T12:36:42;2.30;99.90
37984;DHT22;64625;50.882;4.376;2022-12-10T12:39:23;2.30;99.90
37984;DHT22;64625;50.882;4.376;2022-12-10T12:41:53;2.40;99.90
37984;DHT22;64625;50.882;4.376;2022-12-10T12:44:27;2.40;99.90
37984;DHT22;64625;50.882;4.376;2022-12-10T12:47:14;2.40;99.90
37984;DHT22;64625;50.882;4.376;2022-12-10T12:49:45;2.40;99.90
37984;DHT22;64625;50.882;4.376;2022-12-10T12:54:49;2.50;99.90
37984;DHT22;64625;50.882;4.376;2022-12-10T12:57:30;2.40;99.90
37984;DHT22;64625;50.882;4.376;2022-12-10T13:00:04;2.40;99.90
37984;DHT22;64625;50.882;4.376;2022-12-10T13:05:36;2.40;99.90
37984;DHT22;64625;50.882;4.376;2022-12-10T13:13:38;2.50;99.90
37984;DHT22;64625;50.882;4.376;2022-12-10T13:35:16;2.50;99.90
37984;DHT22;64625;50.882;4.376;2022-12-10T13:40:24;2.50;99.90
37984;DHT22;64625;50.882;4.376;2022-12-10T13:43:25;2.50;99.90
37984;DHT22;64625;50.882;4.376;2022-12-10T13:48:56;2.50;99.90
37984;DHT22;64625;50.882;4.376;2022-12-10T13:56:45;2.60;99.90
37984;DHT22;64625;50.882;4.376;2022-12-10T13:59:29;2.60;99.90
37984;DHT22;64625;50.882;4.376;2022-12-10T14:08:17;2.60;99.90
37984;DHT22;64625;50.882;4.376;2022-12-10T14:10:46;2.60;99.90
37984;DHT22;64625;50.882;4.376;2022-12-10T14:13:15;2.60;99.90
37984;DHT22;64625;50.882;4.376;2022-12-10T14:15:54;2.60;99.90
37984;DHT22;64625;50.882;4.376;2022-12-10T14:18:21;2.60;99.90
37984;DHT22;64625;50.882;4.376;2022-12-10T14:20:52;2.60;99.90
37984;DHT22;64625;50.882;4.376;2022-12-10T14:23:30;2.60;99.90
37984;DHT22;64625;50.882;4.376;2022-12-10T14:26:30;2.60;99.90
37984;DHT22;64625;50.882;4.376;2022-12-10T14:28:59;2.60;99.90
37984;DHT22;64625;50.882;4.376;2022-12-10T14:31:31;2.60;99.90
37984;DHT22;64625;50.882;4.376;2022-12-10T14:34:05;2.60;99.90
37984;DHT22;64625;50.882;4.376;2022-12-10T14:36:38;2.60;99.90
37984;DHT22;64625;50.882;4.376;2022-12-10T14:39:20;2.70;99.90
37984;DHT22;64625;50.882;4.376;2022-12-10T14:41:48;2.70;99.90
37984;DHT22;64625;50.882;4.376;2022-12-10T14:44:17;2.70;99.90
37984;DHT22;64625;50.882;4.376;2022-12-10T14:46:46;2.60;99.90
37984;DHT22;64625;50.882;4.376;2022-12-10T14:49:25;2.70;99.90
37984;DHT22;64625;50.882;4.376;2022-12-10T14:51:56;2.70;99.90
37984;DHT22;64625;50.882;4.376;2022-12-10T14:54:30;2.70;99.90
37984;DHT22;64625;50.882;4.376;2022-12-10T14:57:00;2.70;99.90
37984;DHT22;64625;50.882;4.376;2022-12-10T14:59:35;2.70;99.90
37984;DHT22;64625;50.882;4.376;2022-12-10T15:02:15;2.70;99.90
37984;DHT22;64625;50.882;4.376;2022-12-10T15:04:45;2.70;99.90
37984;DHT22;64625;50.882;4.376;2022-12-10T15:07:24;2.70;99.90
37984;DHT22;64625;50.882;4.376;2022-12-10T15:09:53;2.70;99.90
37984;DHT22;64625;50.882;4.376;2022-12-10T15:12:41;2.70;99.90
37984;DHT22;64625;50.882;4.376;2022-12-10T15:15:21;2.70;99.90
37984;DHT22;64625;50.882;4.376;2022-12-10T15:18:41;2.70;99.90
37984;DHT22;64625;50.882;4.376;2022-12-10T15:20:54;2.70;99.90
37984;DHT22;64625;50.882;4.376;2022-12-10T15:23:34;2.70;99.90
37984;DHT22;64625;50.882;4.376;2022-12-10T15:28:40;2.70;99.90
37984;DHT22;64625;50.882;4.376;2022-12-10T15:31:30;2.70;99.90
37984;DHT22;64625;50.882;4.376;2022-12-10T15:36:39;2.80;99.90
37984;DHT22;64625;50.882;4.376;2022-12-10T15:39:27;2.80;99.90
37984;DHT22;64625;50.882;4.376;2022-12-10T15:41:54;2.80;99.90
37984;DHT22;64625;50.882;4.376;2022-12-10T15:49:44;2.80;99.90
37984;DHT22;64625;50.882;4.376;2022-12-10T15:52:18;2.80;99.90
37984;DHT22;64625;50.882;4.376;2022-12-10T15:54:46;2.80;99.90
37984;DHT22;64625;50.882;4.376;2022-12-10T15:59:42;2.90;99.90
37984;DHT22;64625;50.882;4.376;2022-12-10T16:04:58;2.80;99.90
37984;DHT22;64625;50.882;4.376;2022-12-10T16:07:24;2.80;99.90
37984;DHT22;64625;50.882;4.376;2022-12-10T16:09:50;2.80;99.90
37984;DHT22;64625;50.882;4.376;2022-12-10T16:12:17;2.80;99.90
37984;DHT22;64625;50.882;4.376;2022-12-10T16:14:51;2.80;99.90
37984;DHT22;64625;50.882;4.376;2022-12-10T16:17:22;2.80;99.90
37984;DHT22;64625;50.882;4.376;2022-12-10T16:19:48;2.80;99.90
37984;DHT22;64625;50.882;4.376;2022-12-10T16:22:14;2.80;99.90
37984;DHT22;64625;50.882;4.376;2022-12-10T16:24:40;2.80;99.90
37984;DHT22;64625;50.882;4.376;2022-12-10T16:27:15;2.80;99.90
37984;DHT22;64625;50.882;4.376;2022-12-10T16:29:42;2.80;99.90
37984;DHT22;64625;50.882;4.376;2022-12-10T16:32:12;2.90;99.90
37984;DHT22;64625;50.882;4.376;2022-12-10T16:34:38;2.90;99.90
37984;DHT22;64625;50.882;4.376;2022-12-10T16:37:05;2.80;99.90
37984;DHT22;64625;50.882;4.376;2022-12-10T16:39:32;2.80;99.90
37984;DHT22;64625;50.882;4.376;2022-12-10T16:41:58;2.80;99.90
37984;DHT22;64625;50.882;4.376;2022-12-10T16:44:24;2.90;99.90
37984;DHT22;64625;50.882;4.376;2022-12-10T16:46:49;2.90;99.90
37984;DHT22;64625;50.882;4.376;2022-12-10T16:49:15;2.90;99.90
37984;DHT22;64625;50.882;4.376;2022-12-10T16:51:41;2.90;99.90
37984;DHT22;64625;50.882;4.376;2022-12-10T16:54:12;2.90;99.90
37984;DHT22;64625;50.882;4.376;2022-12-10T16:56:39;2.80;99.90
37984;DHT22;64625;50.882;4.376;2022-12-10T16:59:07;2.80;99.90
37984;DHT22;64625;50.882;4.376;2022-12-10T17:01:34;2.80;99.90
37984;DHT22;64625;50.882;4.376;2022-12-10T17:04:00;2.80;99.90
37984;DHT22;64625;50.882;4.376;2022-12-10T17:06:28;2.80;99.90
37984;DHT22;64625;50.882;4.376;2022-12-10T17:08:54;2.80;99.90
37984;DHT22;64625;50.882;4.376;2022-12-10T17:11:21;2.80;99.90
37984;DHT22;64625;50.882;4.376;2022-12-10T17:14:31;2.80;99.90
37984;DHT22;64625;50.882;4.376;2022-12-10T17:16:58;2.80;99.90
37984;DHT22;64625;50.882;4.376;2022-12-10T17:19:29;2.80;99.90
37984;DHT22;64625;50.882;4.376;2022-12-10T17:21:55;2.80;99.90
37984;DHT22;64625;50.882;4.376;2022-12-10T17:24:22;2.80;99.90
37984;DHT22;64625;50.882;4.376;2022-12-10T17:26:48;2.80;99.90
37984;DHT22;64625;50.882;4.376;2022-12-10T17:29:35;2.90;99.90
37984;DHT22;64625;50.882;4.376;2022-12-10T17:32:03;2.80;99.90
37984;DHT22;64625;50.882;4.376;2022-12-10T17:34:29;2.80;99.90
37984;DHT22;64625;50.882;4.376;2022-12-10T17:36:55;2.90;99.90
37984;DHT22;64625;50.882;4.376;2022-12-10T17:39:22;2.90;99.90
37984;DHT22;64625;50.882;4.376;2022-12-10T17:41:51;2.90;99.90
37984;DHT22;64625;50.882;4.376;2022-12-10T17:44:18;2.90;99.90
37984;DHT22;64625;50.882;4.376;2022-12-10T17:46:44;2.90;99.90
37984;DHT22;64625;50.882;4.376;2022-12-10T17:49:19;2.90;99.90
37984;DHT22;64625;50.882;4.376;2022-12-10T17:51:45;2.90;99.90
37984;DHT22;64625;50.882;4.376;2022-12-10T17:54:11;2.90;99.90
37984;DHT22;64625;50.882;4.376;2022-12-10T17:56:37;2.90;99.90
37984;DHT22;64625;50.882;4.376;2022-12-10T17:59:04;2.90;99.90
37984;DHT22;64625;50.882;4.376;2022-12-10T18:01:31;2.90;99.90
37984;DHT22;64625;50.882;4.376;2022-12-10T18:03:56;2.90;99.90
37984;DHT22;64625;50.882;4.376;2022-12-10T18:06:27;2.90;99.90
37984;DHT22;64625;50.882;4.376;2022-12-10T18:08:59;2.90;99.90
37984;DHT22;64625;50.882;4.376;2022-12-10T18:11:28;3.00;99.90
37984;DHT22;64625;50.882;4.376;2022-12-10T18:13:54;3.00;99.90
37984;DHT22;64625;50.882;4.376;2022-12-10T18:16:24;3.00;99.90
37984;DHT22;64625;50.882;4.376;2022-12-10T18:18:53;3.00;99.90
37984;DHT22;64625;50.882;4.376;2022-12-10T18:21:20;3.00;99.90